PGT24BK LTCR-LTBJ
Flight info
| Callsign | PGT24BK |
|---|---|
| Flight time | N/A |
| Altitude | 34000 |
| Route | ARTAR UT470 ADKAR DCT MANAZ/N0457F330 UW74 MUT/N0457F340 UR55 AYT UN135 BAPSI |
| Aircraft | A21N/M-SDE2E3FGHIRWXY/LB1 |
Departure
| Time | N/A |
|---|---|
| Airport | Mardin Airport (LTCR) |
Arrival
| Time | 2026-05-04 13:05 |
|---|---|
| Airport | Adnan Menderes International Airport (LTBJ) |
| Time | Latitude | Longitude | Altitude | Speed | Heading |
|---|---|---|---|---|---|
| 2026-05-04 12:55 | 38.03629 | 27.64694 | 9233 ft | 281 kts | 285° |
| 2026-05-04 12:55 | 38.03959 | 27.62260 | 8848 ft | 278 kts | 285° |
| 2026-05-04 12:55 | 38.04278 | 27.59894 | 8477 ft | 274 kts | 285° |
| 2026-05-04 12:56 | 38.04596 | 27.57518 | 8081 ft | 271 kts | 284° |
| 2026-05-04 12:56 | 38.04904 | 27.55178 | 7928 ft | 269 kts | 284° |
| 2026-05-04 12:56 | 38.05209 | 27.52839 | 7915 ft | 268 kts | 284° |
| 2026-05-04 12:56 | 38.05513 | 27.50531 | 7809 ft | 261 kts | 285° |
| 2026-05-04 12:57 | 38.05805 | 27.48292 | 7617 ft | 253 kts | 285° |
| 2026-05-04 12:57 | 38.06077 | 27.46137 | 7469 ft | 242 kts | 283° |
| 2026-05-04 12:57 | 38.06330 | 27.44058 | 7233 ft | 236 kts | 284° |
| 2026-05-04 12:57 | 38.06577 | 27.42011 | 6923 ft | 233 kts | 284° |
| 2026-05-04 12:58 | 38.06820 | 27.39988 | 6561 ft | 231 kts | 284° |
| 2026-05-04 12:58 | 38.07066 | 27.37981 | 6073 ft | 228 kts | 284° |
| 2026-05-04 12:58 | 38.07313 | 27.36003 | 5572 ft | 227 kts | 284° |
| 2026-05-04 12:58 | 38.07565 | 27.34033 | 5094 ft | 226 kts | 283° |
| 2026-05-04 12:59 | 38.07606 | 27.32025 | 4596 ft | 231 kts | 265° |
| 2026-05-04 12:59 | 38.07271 | 27.30032 | 4117 ft | 231 kts | 261° |
| 2026-05-04 12:59 | 38.06883 | 27.28060 | 3897 ft | 230 kts | 261° |
| 2026-05-04 12:59 | 38.06501 | 27.26094 | 3855 ft | 227 kts | 261° |
| 2026-05-04 13:00 | 38.06331 | 27.24167 | 3839 ft | 212 kts | 285° |
| 2026-05-04 13:00 | 38.06897 | 27.22585 | 3863 ft | 192 kts | 315° |
| 2026-05-04 13:00 | 38.08022 | 27.21727 | 3748 ft | 191 kts | 342° |
| 2026-05-04 13:00 | 38.09319 | 27.21393 | 3581 ft | 189 kts | 349° |
| 2026-05-04 13:01 | 38.10580 | 27.21069 | 3348 ft | 182 kts | 347° |
| 2026-05-04 13:01 | 38.11810 | 27.20721 | 3152 ft | 180 kts | 346° |
| 2026-05-04 13:01 | 38.13019 | 27.20367 | 2963 ft | 180 kts | 346° |
| 2026-05-04 13:01 | 38.14232 | 27.20007 | 2799 ft | 180 kts | 346° |
| 2026-05-04 13:02 | 38.15454 | 27.19644 | 2611 ft | 180 kts | 346° |
| 2026-05-04 13:02 | 38.16681 | 27.19277 | 2423 ft | 182 kts | 346° |
| 2026-05-04 13:02 | 38.17879 | 27.18914 | 2303 ft | 170 kts | 345° |
| 2026-05-04 13:02 | 38.18984 | 27.18582 | 2233 ft | 158 kts | 344° |
| 2026-05-04 13:03 | 38.20057 | 27.18259 | 2175 ft | 159 kts | 345° |
| 2026-05-04 13:03 | 38.21148 | 27.17931 | 1965 ft | 160 kts | 345° |
| 2026-05-04 13:03 | 38.22192 | 27.17618 | 1682 ft | 148 kts | 345° |
| 2026-05-04 13:03 | 38.23139 | 27.17337 | 1372 ft | 129 kts | 346° |
| 2026-05-04 13:04 | 38.23982 | 27.17073 | 1161 ft | 124 kts | 347° |
| 2026-05-04 13:04 | 38.24806 | 27.16829 | 1006 ft | 122 kts | 347° |
| 2026-05-04 13:04 | 38.25636 | 27.16573 | 840 ft | 119 kts | 348° |
| 2026-05-04 13:04 | 38.26439 | 27.16333 | 681 ft | 120 kts | 347° |
| 2026-05-04 13:05 | 38.26977 | 27.16167 | 618 ft | 118 kts | 347° |
| 2026-05-04 13:05 | 38.27793 | 27.15920 | 465 ft | 120 kts | 344° |
| 2026-05-04 13:05 | 38.28549 | 27.15688 | 424 ft | 95 kts | 347° |
| 2026-05-04 13:05 | 38.29137 | 27.15511 | 419 ft | 49 kts | 346° |
| 2026-05-04 13:06 | 38.29373 | 27.15438 | 421 ft | 9 kts | 335° |
| 2026-05-04 13:06 | 38.29384 | 27.15387 | 426 ft | 10 kts | 259° |
| 2026-05-04 13:06 | 38.29369 | 27.15302 | 417 ft | 10 kts | 257° |
| 2026-05-04 13:06 | 38.29354 | 27.15215 | 416 ft | 11 kts | 257° |
| 2026-05-04 13:07 | 38.29312 | 27.15140 | 416 ft | 12 kts | 180° |
| 2026-05-04 13:07 | 38.29230 | 27.15166 | 414 ft | 10 kts | 168° |
| 2026-05-04 13:07 | 38.29168 | 27.15171 | 413 ft | 7 kts | 222° |
| 2026-05-04 13:07 | 38.29152 | 27.15105 | 417 ft | 4 kts | 257° |
| 2026-05-04 13:08 | 38.29150 | 27.15094 | 417 ft | 0 kts | 257° |